Time;durP1;ratioP1;P1;durP2;ratioP2;P2;SDS_P1;SDS_P2;PMS_P1;PMS_P2;Temp;Humidity;BMP_temperature;BMP_pressure;BME280_temperature;BME280_humidity;BME280_pressure;Samples;Min_cycle;Max_cycle;Signal;HPM_P1;HPM_P2
2022/11/15 00:00:24;;;;;;;28.15;14.93;;;;;;;;;;5033996;28;20207;-65
2022/11/15 00:02:51;;;;;;;26.52;14.65;;;;;;;;;;5034920;28;20236;-65
2022/11/15 00:05:17;;;;;;;25.92;14.95;;;;;;;;;;5034207;28;20214;-66
2022/11/15 00:07:42;;;;;;;27.35;15.38;;;;;;;;;;5032878;28;20207;-66
2022/11/15 00:10:07;;;;;;;27.48;15.68;;;;;;;;;;5034453;28;20211;-66
2022/11/15 00:12:33;;;;;;;28.95;15.73;;;;;;;;;;5033436;28;20216;-65
2022/11/15 00:14:58;;;;;;;28.02;15.82;;;;;;;;;;5031149;28;20291;-66
2022/11/15 00:17:23;;;;;;;29.35;16.95;;;;;;;;;;5033766;28;20226;-65
2022/11/15 00:19:49;;;;;;;28.05;16.17;;;;;;;;;;5033923;28;20243;-66
2022/11/15 00:22:14;;;;;;;29.02;15.98;;;;;;;;;;5034176;28;20246;-65
2022/11/15 00:24:39;;;;;;;30.80;16.13;;;;;;;;;;5034794;28;20220;-65
2022/11/15 00:27:05;;;;;;;28.73;15.68;;;;;;;;;;5032867;28;20215;-66
2022/11/15 00:29:30;;;;;;;36.97;17.67;;;;;;;;;;5034602;28;20655;-66
2022/11/15 00:31:55;;;;;;;34.10;18.25;;;;;;;;;;5034297;28;20208;-66
2022/11/15 00:34:20;;;;;;;28.90;17.55;;;;;;;;;;5033315;28;20295;-66
2022/11/15 00:36:46;;;;;;;32.42;16.63;;;;;;;;;;5034520;28;20705;-66
2022/11/15 00:39:11;;;;;;;29.98;16.80;;;;;;;;;;5033771;28;20214;-65
2022/11/15 00:41:36;;;;;;;31.77;17.30;;;;;;;;;;5032843;28;20257;-65
2022/11/15 00:44:01;;;;;;;29.33;16.88;;;;;;;;;;5032511;28;20216;-64
2022/11/15 00:46:27;;;;;;;30.33;16.58;;;;;;;;;;5029931;28;20215;-66
2022/11/15 00:48:52;;;;;;;27.77;16.75;;;;;;;;;;5033288;28;20310;-65
2022/11/15 00:51:17;;;;;;;29.88;16.40;;;;;;;;;;5031327;28;20261;-65
2022/11/15 00:53:42;;;;;;;30.52;17.00;;;;;;;;;;5031905;28;20678;-65
2022/11/15 00:56:08;;;;;;;27.85;16.60;;;;;;;;;;5030506;28;20214;-65
2022/11/15 00:58:33;;;;;;;32.72;17.27;;;;;;;;;;5033647;28;20219;-65
2022/11/15 01:01:08;;;;;;;34.65;17.55;;;;;;;;;;5033931;28;20216;-66
2022/11/15 01:03:34;;;;;;;25.52;15.77;;;;;;;;;;5012877;28;20224;-65
2022/11/15 01:05:59;;;;;;;32.55;17.05;;;;;;;;;;5013012;28;20692;-65
2022/11/15 01:08:24;;;;;;;28.98;16.23;;;;;;;;;;5013499;28;20270;-65
2022/11/15 01:10:50;;;;;;;28.00;15.93;;;;;;;;;;5013233;28;20240;-66
2022/11/15 01:13:15;;;;;;;30.92;17.38;;;;;;;;;;5013084;28;20300;-65
2022/11/15 01:15:40;;;;;;;27.73;15.75;;;;;;;;;;5013800;28;20217;-65
2022/11/15 01:18:06;;;;;;;26.05;16.17;;;;;;;;;;5011876;28;20720;-65
2022/11/15 01:20:31;;;;;;;29.10;16.48;;;;;;;;;;5013922;28;20212;-65
2022/11/15 01:22:56;;;;;;;24.05;15.98;;;;;;;;;;5012923;28;20617;-66
2022/11/15 01:25:21;;;;;;;25.90;16.23;;;;;;;;;;5013225;28;20216;-66
2022/11/15 01:27:47;;;;;;;27.48;17.25;;;;;;;;;;5013393;28;20240;-66
2022/11/15 01:30:12;;;;;;;24.60;14.82;;;;;;;;;;5012411;28;20213;-65
2022/11/15 01:32:37;;;;;;;27.20;15.98;;;;;;;;;;5013636;28;20247;-66
2022/11/15 01:35:03;;;;;;;27.30;17.20;;;;;;;;;;5013023;28;20296;-65
2022/11/15 01:37:28;;;;;;;26.73;16.42;;;;;;;;;;5012666;28;20216;-65
2022/11/15 01:39:53;;;;;;;27.48;16.40;;;;;;;;;;5013312;28;20247;-65
2022/11/15 01:42:18;;;;;;;30.05;17.02;;;;;;;;;;5012832;28;20726;-65
2022/11/15 01:44:45;;;;;;;27.30;16.65;;;;;;;;;;5012354;28;20311;-65
2022/11/15 01:47:12;;;;;;;26.10;15.77;;;;;;;;;;5021211;28;20251;-65
2022/11/15 01:49:38;;;;;;;24.08;15.88;;;;;;;;;;5015362;28;20258;-65
2022/11/15 01:52:03;;;;;;;27.45;17.25;;;;;;;;;;5031750;28;20601;-65
2022/11/15 01:54:29;;;;;;;27.55;17.25;;;;;;;;;;5012429;28;20208;-66
2022/11/15 01:56:56;;;;;;;25.45;16.60;;;;;;;;;;5032752;28;20223;-66
2022/11/15 01:59:21;;;;;;;27.38;16.65;;;;;;;;;;5031432;28;20212;-65
2022/11/15 02:01:46;;;;;;;26.02;16.48;;;;;;;;;;5029255;28;20251;-66
2022/11/15 02:04:13;;;;;;;34.47;18.35;;;;;;;;;;5012487;28;20307;-66
2022/11/15 02:06:38;;;;;;;25.10;15.95;;;;;;;;;;5012355;28;20247;-66
2022/11/15 02:09:03;;;;;;;25.38;16.00;;;;;;;;;;4994988;28;20242;-65
2022/11/15 02:11:28;;;;;;;26.85;17.42;;;;;;;;;;5012678;28;20216;-66
2022/11/15 02:13:54;;;;;;;24.45;16.38;;;;;;;;;;5011719;28;20250;-66
2022/11/15 02:16:38;;;;;;;27.85;16.88;;;;;;;;;;5012314;28;20708;-66
2022/11/15 02:19:22;;;;;;;29.02;16.80;;;;;;;;;;5012190;28;20219;-65
2022/11/15 02:22:00;;;;;;;25.88;16.52;;;;;;;;;;5012767;28;20274;-66
2022/11/15 02:24:28;;;;;;;24.10;16.77;;;;;;;;;;4994892;28;20216;-65
2022/11/15 02:27:06;;;;;;;28.52;18.20;;;;;;;;;;5012155;28;20228;-66
2022/11/15 02:29:42;;;;;;;27.48;17.13;;;;;;;;;;4993717;28;20223;-65
2022/11/15 02:32:13;;;;;;;26.33;16.52;;;;;;;;;;5012209;28;20255;-65
2022/11/15 02:34:46;;;;;;;24.00;16.77;;;;;;;;;;4994398;28;20244;-66
2022/11/15 02:37:18;;;;;;;28.92;17.50;;;;;;;;;;5012141;28;20228;-65
2022/11/15 02:39:58;;;;;;;27.10;16.42;;;;;;;;;;5012572;28;20234;-65
2022/11/15 02:45:10;;;;;;;27.70;17.92;;;;;;;;;;4996913;28;20231;-65
2022/11/15 02:47:38;;;;;;;23.38;16.75;;;;;;;;;;5011729;28;20672;-65
2022/11/15 02:50:06;;;;;;;22.05;16.15;;;;;;;;;;4994481;28;20216;-65
2022/11/15 02:52:31;;;;;;;24.70;17.70;;;;;;;;;;4994918;28;20315;-65
2022/11/15 02:54:57;;;;;;;21.23;15.52;;;;;;;;;;5011375;28;20742;-65
2022/11/15 02:57:33;;;;;;;22.23;15.68;;;;;;;;;;4994342;28;20224;-65
2022/11/15 03:00:03;;;;;;;23.02;16.73;;;;;;;;;;4994540;28;20570;-65
2022/11/15 03:02:29;;;;;;;24.50;17.58;;;;;;;;;;5002762;28;20830;-65
2022/11/15 03:04:56;;;;;;;25.17;17.30;;;;;;;;;;5032259;28;20274;-66
2022/11/15 03:07:28;;;;;;;22.10;16.00;;;;;;;;;;5031439;28;20656;-65
2022/11/15 03:09:55;;;;;;;21.88;15.55;;;;;;;;;;5031391;28;20215;-65
2022/11/15 03:12:24;;;;;;;25.08;17.95;;;;;;;;;;5013961;28;20354;-65
2022/11/15 03:14:51;;;;;;;23.85;16.85;;;;;;;;;;5011936;28;20238;-66
2022/11/15 03:17:19;;;;;;;27.33;17.00;;;;;;;;;;4993435;28;20224;-65
2022/11/15 03:19:46;;;;;;;22.55;15.60;;;;;;;;;;4994724;28;20220;-65
2022/11/15 03:22:13;;;;;;;23.27;15.57;;;;;;;;;;4994306;28;20271;-65
2022/11/15 03:24:38;;;;;;;19.95;14.93;;;;;;;;;;4994020;28;20224;-65
2022/11/15 03:27:05;;;;;;;22.80;14.88;;;;;;;;;;5011674;28;20602;-65
2022/11/15 03:29:32;;;;;;;23.40;15.88;;;;;;;;;;5011535;28;20232;-65
2022/11/15 03:31:58;;;;;;;22.83;15.68;;;;;;;;;;4994039;28;20747;-65
2022/11/15 03:34:27;;;;;;;21.85;15.18;;;;;;;;;;4994196;28;20205;-65
2022/11/15 03:36:53;;;;;;;20.67;14.77;;;;;;;;;;4993893;28;20279;-65
2022/11/15 03:39:18;;;;;;;25.08;16.15;;;;;;;;;;5011594;28;20208;-65
2022/11/15 03:41:48;;;;;;;20.52;14.82;;;;;;;;;;4998152;28;20224;-65
2022/11/15 03:44:17;;;;;;;24.30;15.55;;;;;;;;;;5014431;28;20267;-65
2022/11/15 03:46:46;;;;;;;22.88;15.38;;;;;;;;;;4997615;28;20698;-66
2022/11/15 03:49:13;;;;;;;25.90;16.13;;;;;;;;;;4997627;28;20212;-65
2022/11/15 03:51:38;;;;;;;21.52;15.38;;;;;;;;;;5014755;28;20267;-66
2022/11/15 03:54:04;;;;;;;21.20;14.15;;;;;;;;;;5025310;28;20220;-65
2022/11/15 03:56:29;;;;;;;25.13;16.35;;;;;;;;;;5017429;28;20655;-65
2022/11/15 03:58:54;;;;;;;22.17;15.70;;;;;;;;;;5034483;28;20667;-65
2022/11/15 04:01:20;;;;;;;22.95;16.70;;;;;;;;;;5034249;28;20231;-65
2022/11/15 04:03:45;;;;;;;23.05;16.17;;;;;;;;;;5034881;28;20228;-66
2022/11/15 04:06:10;;;;;;;22.70;14.70;;;;;;;;;;5006107;28;20307;-65
2022/11/15 04:08:35;;;;;;;20.77;14.80;;;;;;;;;;5004624;28;20208;-65
2022/11/15 04:11:01;;;;;;;20.65;14.50;;;;;;;;;;5004774;28;20715;-65
2022/11/15 04:13:26;;;;;;;19.55;14.45;;;;;;;;;;5004131;28;20208;-66
2022/11/15 04:15:51;;;;;;;24.42;15.73;;;;;;;;;;5002438;28;20359;-66
2022/11/15 04:18:17;;;;;;;21.08;14.38;;;;;;;;;;4992073;28;20219;-66
2022/11/15 04:26:11;;;;;;;22.40;12.85;;;;;;;;;;5003884;28;20255;-66
2022/11/15 04:29:34;;;;;;;24.20;13.32;;;;;;;;;;5004774;28;20212;-65
2022/11/15 04:31:25;;;;;;;19.38;13.70;;;;;;;;;;5003816;28;20695;-66
2022/11/15 04:33:50;;;;;;;19.00;13.38;;;;;;;;;;5003834;28;20224;-66
2022/11/15 04:39:01;;;;;;;23.67;14.55;;;;;;;;;;4999734;28;20208;-65
2022/11/15 04:41:27;;;;;;;21.33;14.48;;;;;;;;;;4996008;28;20570;-66
2022/11/15 04:43:52;;;;;;;21.73;13.98;;;;;;;;;;4996885;28;20758;-66
2022/11/15 04:46:17;;;;;;;19.30;13.75;;;;;;;;;;5000517;28;20205;-66
2022/11/15 04:48:42;;;;;;;23.83;15.15;;;;;;;;;;5003338;28;20307;-65
2022/11/15 04:51:08;;;;;;;25.15;15.88;;;;;;;;;;5003475;28;20227;-65
2022/11/15 04:53:33;;;;;;;21.75;13.75;;;;;;;;;;5004166;28;20707;-66
2022/11/15 04:55:58;;;;;;;21.17;14.90;;;;;;;;;;5003724;28;20549;-66
2022/11/15 04:58:23;;;;;;;22.27;15.18;;;;;;;;;;5003751;28;20292;-67
2022/11/15 05:00:49;;;;;;;17.95;13.57;;;;;;;;;;5002232;28;20209;-66
2022/11/15 05:05:58;;;;;;;18.38;13.48;;;;;;;;;;5024479;28;20215;-66
2022/11/15 05:08:24;;;;;;;19.20;14.95;;;;;;;;;;5030983;28;20212;-65
2022/11/15 05:10:49;;;;;;;21.83;14.90;;;;;;;;;;5033695;28;20224;-66
2022/11/15 05:13:14;;;;;;;19.23;14.23;;;;;;;;;;5028208;28;20809;-65
2022/11/15 05:15:39;;;;;;;20.05;14.45;;;;;;;;;;5015144;28;20220;-66
2022/11/15 05:18:05;;;;;;;22.05;15.60;;;;;;;;;;5022113;28;20235;-66
2022/11/15 05:20:30;;;;;;;20.52;14.95;;;;;;;;;;5023511;28;20662;-66
2022/11/15 05:22:55;;;;;;;21.05;15.13;;;;;;;;;;5022929;28;20216;-66
2022/11/15 05:25:21;;;;;;;18.13;13.25;;;;;;;;;;5023042;28;20219;-66
2022/11/15 05:27:46;;;;;;;26.17;15.90;;;;;;;;;;5023620;28;20224;-66
2022/11/15 05:30:12;;;;;;;24.17;15.75;;;;;;;;;;5022147;28;20224;-66
2022/11/15 05:32:37;;;;;;;24.08;16.00;;;;;;;;;;5018112;28;20199;-66
2022/11/15 05:35:02;;;;;;;21.58;15.27;;;;;;;;;;5014546;28;21171;-66
2022/11/15 05:37:28;;;;;;;26.65;15.82;;;;;;;;;;5013470;28;20231;-66
2022/11/15 05:39:53;;;;;;;27.35;15.68;;;;;;;;;;5020873;28;20212;-66
2022/11/15 05:42:19;;;;;;;20.52;15.27;;;;;;;;;;5022813;28;20778;-66
2022/11/15 05:44:46;;;;;;;25.55;16.88;;;;;;;;;;5022574;28;20258;-66
2022/11/15 05:47:12;;;;;;;22.13;15.48;;;;;;;;;;5020887;28;20207;-66
2022/11/15 05:49:37;;;;;;;24.73;16.67;;;;;;;;;;5023005;28;20666;-66
2022/11/15 05:52:03;;;;;;;21.98;15.13;;;;;;;;;;5021613;28;20208;-66
2022/11/15 05:54:28;;;;;;;24.05;16.15;;;;;;;;;;5018985;28;20243;-66
2022/11/15 05:56:55;;;;;;;34.33;25.55;;;;;;;;;;5013812;28;20327;-67
2022/11/15 05:59:20;;;;;;;27.73;19.65;;;;;;;;;;5013010;28;20691;-67
2022/11/15 06:01:46;;;;;;;22.77;16.85;;;;;;;;;;5018462;28;20228;-67
2022/11/15 06:04:11;;;;;;;25.60;16.33;;;;;;;;;;5021764;28;20657;-68
2022/11/15 06:06:36;;;;;;;23.42;16.08;;;;;;;;;;5023306;28;20916;-67
2022/11/15 06:09:02;;;;;;;22.52;16.30;;;;;;;;;;5022610;28;20219;-67
2022/11/15 06:11:27;;;;;;;24.85;16.08;;;;;;;;;;5022461;28;20266;-67
2022/11/15 06:13:52;;;;;;;27.90;17.33;;;;;;;;;;5021470;28;20227;-68
2022/11/15 06:16:17;;;;;;;27.13;17.13;;;;;;;;;;5002749;28;20231;-68
2022/11/15 06:18:43;;;;;;;22.75;15.15;;;;;;;;;;4989128;28;20239;-68
2022/11/15 06:21:08;;;;;;;24.25;15.30;;;;;;;;;;4994569;28;21048;-67
2022/11/15 06:23:34;;;;;;;19.85;14.68;;;;;;;;;;4995547;28;20303;-67
2022/11/15 06:25:59;;;;;;;24.65;15.52;;;;;;;;;;5002479;28;20216;-67
2022/11/15 06:28:25;;;;;;;24.85;15.75;;;;;;;;;;5009343;28;20212;-67
2022/11/15 06:30:50;;;;;;;26.80;16.45;;;;;;;;;;4984816;28;20214;-67
2022/11/15 06:33:15;;;;;;;24.40;16.38;;;;;;;;;;5001583;28;20628;-67
2022/11/15 06:35:40;;;;;;;24.13;16.17;;;;;;;;;;5002572;28;20226;-68
2022/11/15 06:38:07;;;;;;;27.08;17.13;;;;;;;;;;5002545;28;20231;-67
2022/11/15 06:40:33;;;;;;;23.38;15.68;;;;;;;;;;4996724;28;20741;-67
2022/11/15 06:42:59;;;;;;;26.65;16.88;;;;;;;;;;4994645;28;20223;-68
2022/11/15 06:45:24;;;;;;;24.38;16.20;;;;;;;;;;4994725;28;20212;-68
2022/11/15 06:47:49;;;;;;;28.17;16.98;;;;;;;;;;5000126;28;20706;-68
2022/11/15 06:50:15;;;;;;;29.10;16.95;;;;;;;;;;5002203;28;20230;-67
2022/11/15 06:52:40;;;;;;;27.77;16.92;;;;;;;;;;4985153;28;20227;-67
2022/11/15 06:55:05;;;;;;;22.00;16.13;;;;;;;;;;5002077;28;20279;-67
2022/11/15 06:57:32;;;;;;;23.00;15.65;;;;;;;;;;5002649;28;20902;-67
2022/11/15 06:59:57;;;;;;;22.25;16.15;;;;;;;;;;5002827;28;20700;-67
2022/11/15 07:02:22;;;;;;;20.10;15.50;;;;;;;;;;4998528;28;20259;-68
2022/11/15 07:04:47;;;;;;;24.70;17.67;;;;;;;;;;5001641;28;20223;-67
2022/11/15 07:07:13;;;;;;;21.20;15.18;;;;;;;;;;5009796;28;20205;-70
2022/11/15 07:09:39;;;;;;;20.08;14.68;;;;;;;;;;5011526;28;20240;-66
2022/11/15 07:12:05;;;;;;;28.98;17.15;;;;;;;;;;5012008;28;20292;-63
2022/11/15 07:14:30;;;;;;;22.70;17.73;;;;;;;;;;5002548;28;20435;-64
2022/11/15 07:16:55;;;;;;;22.55;16.52;;;;;;;;;;5015175;28;20232;-63
2022/11/15 07:19:20;;;;;;;21.67;14.93;;;;;;;;;;5019930;28;20212;-63
2022/11/15 07:21:46;;;;;;;22.73;15.52;;;;;;;;;;5022883;28;20617;-64
2022/11/15 07:24:11;;;;;;;22.75;15.52;;;;;;;;;;5019719;28;20223;-64
2022/11/15 07:26:37;;;;;;;24.10;16.58;;;;;;;;;;5015353;28;20220;-64
2022/11/15 07:29:02;;;;;;;19.85;14.20;;;;;;;;;;5014777;28;20200;-64
2022/11/15 07:31:27;;;;;;;22.70;17.33;;;;;;;;;;5025267;28;20211;-65
2022/11/15 07:33:52;;;;;;;26.60;18.48;;;;;;;;;;5025395;28;20219;-65
2022/11/15 07:36:18;;;;;;;42.50;29.58;;;;;;;;;;5022371;28;20295;-64
2022/11/15 07:38:43;;;;;;;41.10;31.65;;;;;;;;;;5026097;28;20568;-64
2022/11/15 07:41:08;;;;;;;47.13;34.58;;;;;;;;;;5024449;28;20574;-65
2022/11/15 07:43:34;;;;;;;28.42;20.92;;;;;;;;;;5023660;28;20620;-65
2022/11/15 07:45:59;;;;;;;26.33;19.15;;;;;;;;;;5025786;28;20208;-65
2022/11/15 07:48:24;;;;;;;20.45;15.18;;;;;;;;;;5005907;28;20204;-65
2022/11/15 07:50:49;;;;;;;17.23;13.27;;;;;;;;;;5024062;28;20204;-65
2022/11/15 07:53:15;;;;;;;19.13;13.75;;;;;;;;;;5025231;28;20266;-65
2022/11/15 07:55:40;;;;;;;16.45;11.70;;;;;;;;;;5023607;28;20223;-64
2022/11/15 07:58:06;;;;;;;19.17;12.90;;;;;;;;;;5021525;28;20684;-64
2022/11/15 08:00:31;;;;;;;16.70;12.52;;;;;;;;;;5025446;28;20239;-65
2022/11/15 08:03:04;;;;;;;17.95;13.55;;;;;;;;;;5023215;28;20255;-64
2022/11/15 08:05:29;;;;;;;16.63;12.88;;;;;;;;;;5026537;28;20208;-65
2022/11/15 08:07:55;;;;;;;15.48;12.00;;;;;;;;;;5024462;28;20258;-65
2022/11/15 08:10:21;;;;;;;16.98;12.73;;;;;;;;;;5026900;28;20238;-65
2022/11/15 08:12:46;;;;;;;16.70;12.10;;;;;;;;;;5021381;28;20224;-65
2022/11/15 08:15:11;;;;;;;17.17;12.63;;;;;;;;;;5014124;28;20224;-64
2022/11/15 08:17:37;;;;;;;14.93;10.95;;;;;;;;;;5015232;28;20626;-64
2022/11/15 08:20:03;;;;;;;14.80;11.35;;;;;;;;;;5012993;28;20235;-64
2022/11/15 08:22:28;;;;;;;17.98;13.02;;;;;;;;;;5014051;28;20197;-65
2022/11/15 08:24:53;;;;;;;14.75;11.82;;;;;;;;;;5013353;28;20204;-65
2022/11/15 08:27:19;;;;;;;16.95;13.05;;;;;;;;;;5011965;28;20567;-65
2022/11/15 08:29:44;;;;;;;14.23;10.68;;;;;;;;;;5013760;28;20702;-65
2022/11/15 08:32:10;;;;;;;17.10;12.45;;;;;;;;;;5012500;28;20624;-64
2022/11/15 08:34:35;;;;;;;15.43;11.00;;;;;;;;;;5013759;28;20207;-64
2022/11/15 08:37:00;;;;;;;13.00;10.60;;;;;;;;;;5013238;28;20223;-64
2022/11/15 08:39:25;;;;;;;13.65;10.93;;;;;;;;;;5012829;28;20209;-64
2022/11/15 08:41:51;;;;;;;15.20;10.32;;;;;;;;;;5013715;28;20209;-65
2022/11/15 08:44:16;;;;;;;15.70;10.55;;;;;;;;;;5013047;28;20200;-65
2022/11/15 08:46:41;;;;;;;13.93;11.00;;;;;;;;;;5012851;28;20217;-65
2022/11/15 08:49:07;;;;;;;12.73;10.38;;;;;;;;;;5013070;28;20212;-64
2022/11/15 08:51:32;;;;;;;13.70;10.32;;;;;;;;;;5013700;28;20217;-65
2022/11/15 08:53:57;;;;;;;14.95;11.35;;;;;;;;;;5013055;28;20696;-66
2022/11/15 08:56:23;;;;;;;16.90;12.00;;;;;;;;;;5007217;28;20228;-65
2022/11/15 08:58:48;;;;;;;17.42;12.20;;;;;;;;;;5014085;28;20219;-63
2022/11/15 09:01:14;;;;;;;15.45;11.77;;;;;;;;;;4997520;28;20216;-65
2022/11/15 09:03:40;;;;;;;14.40;10.98;;;;;;;;;;5052370;28;20270;-65
2022/11/15 09:06:05;;;;;;;17.90;11.60;;;;;;;;;;5053230;28;20739;-65
2022/11/15 09:08:31;;;;;;;14.13;9.80;;;;;;;;;;5052593;28;20541;-65
2022/11/15 09:10:56;;;;;;;13.82;9.68;;;;;;;;;;5053192;28;20251;-65
2022/11/15 09:13:21;;;;;;;14.07;9.32;;;;;;;;;;5052969;28;20552;-65
2022/11/15 09:15:47;;;;;;;12.55;9.32;;;;;;;;;;5042302;28;20211;-65
2022/11/15 09:18:12;;;;;;;13.02;8.60;;;;;;;;;;5032883;28;20311;-65
2022/11/15 09:20:37;;;;;;;10.32;7.50;;;;;;;;;;5033296;28;20386;-65
2022/11/15 09:23:03;;;;;;;12.90;7.30;;;;;;;;;;5032081;28;20682;-65
2022/11/15 09:25:28;;;;;;;9.77;7.07;;;;;;;;;;5031554;28;20208;-65
2022/11/15 09:27:54;;;;;;;12.38;7.70;;;;;;;;;;5033386;28;20223;-65
2022/11/15 09:30:19;;;;;;;9.20;6.88;;;;;;;;;;5032026;28;20303;-65
2022/11/15 09:32:44;;;;;;;11.77;7.47;;;;;;;;;;5035948;28;20219;-65
2022/11/15 09:35:09;;;;;;;12.63;7.38;;;;;;;;;;5050803;28;20341;-65
2022/11/15 09:37:35;;;;;;;12.60;7.72;;;;;;;;;;5050404;28;20570;-65
2022/11/15 09:40:00;;;;;;;10.88;7.55;;;;;;;;;;5039738;28;20291;-65
2022/11/15 09:42:26;;;;;;;12.80;7.80;;;;;;;;;;5028374;28;20208;-65
2022/11/15 09:44:56;;;;;;;14.23;8.45;;;;;;;;;;5020261;28;20232;-65
2022/11/15 09:47:23;;;;;;;11.35;7.63;;;;;;;;;;5018978;28;20204;-65
2022/11/15 09:49:54;;;;;;;11.05;7.75;;;;;;;;;;5032284;28;20204;-65
2022/11/15 09:52:19;;;;;;;16.52;10.25;;;;;;;;;;5014975;28;20552;-65
2022/11/15 09:54:46;;;;;;;12.70;7.97;;;;;;;;;;5003411;28;20231;-64
2022/11/15 09:57:13;;;;;;;12.27;7.38;;;;;;;;;;5025868;28;20596;-65
2022/11/15 09:59:47;;;;;;;9.77;6.72;;;;;;;;;;5015360;28;20211;-65
2022/11/15 10:02:18;;;;;;;9.13;6.47;;;;;;;;;;5032066;28;20235;-65
2022/11/15 10:04:44;;;;;;;11.82;6.90;;;;;;;;;;5032089;28;20215;-65
2022/11/15 10:07:13;;;;;;;9.82;7.03;;;;;;;;;;5014567;28;20212;-65
2022/11/15 10:09:43;;;;;;;10.95;7.60;;;;;;;;;;5030915;28;20682;-65
2022/11/15 10:12:09;;;;;;;11.70;7.78;;;;;;;;;;5030294;28;20648;-65
2022/11/15 10:14:34;;;;;;;10.73;7.22;;;;;;;;;;5031284;28;20302;-65
2022/11/15 10:17:02;;;;;;;9.05;6.28;;;;;;;;;;5032274;28;20228;-65
2022/11/15 10:19:29;;;;;;;10.52;6.00;;;;;;;;;;5013986;28;20729;-65
2022/11/15 10:22:13;;;;;;;10.32;6.03;;;;;;;;;;5032569;28;20690;-65
2022/11/15 10:24:41;;;;;;;8.23;5.10;;;;;;;;;;5030543;28;20682;-65
2022/11/15 10:27:08;;;;;;;7.78;4.40;;;;;;;;;;4997284;28;20215;-64
2022/11/15 10:29:33;;;;;;;8.50;5.00;;;;;;;;;;5018352;28;20669;-64
2022/11/15 10:31:58;;;;;;;8.10;4.50;;;;;;;;;;5011787;28;20224;-65
2022/11/15 10:34:24;;;;;;;6.97;4.00;;;;;;;;;;5012559;28;20232;-65
2022/11/15 10:36:57;;;;;;;5.80;3.80;;;;;;;;;;5014862;28;20339;-65
2022/11/15 10:39:23;;;;;;;7.72;3.78;;;;;;;;;;5025065;28;20311;-65
2022/11/15 10:41:48;;;;;;;8.65;3.97;;;;;;;;;;5011217;28;20304;-64
2022/11/15 10:44:20;;;;;;;4.10;2.70;;;;;;;;;;5011973;28;20238;-65
2022/11/15 10:46:48;;;;;;;5.82;2.70;;;;;;;;;;5011737;28;20216;-65
2022/11/15 10:49:14;;;;;;;4.65;2.55;;;;;;;;;;5012136;28;20263;-64
2022/11/15 10:51:48;;;;;;;5.63;2.65;;;;;;;;;;5016379;28;20219;-65
2022/11/15 10:54:15;;;;;;;5.82;2.40;;;;;;;;;;5006695;28;20622;-64
2022/11/15 10:56:40;;;;;;;4.55;2.50;;;;;;;;;;5035416;28;20269;-64
2022/11/15 10:59:07;;;;;;;5.97;2.40;;;;;;;;;;5035145;28;20216;-64
2022/11/15 11:01:33;;;;;;;6.05;2.50;;;;;;;;;;5050237;28;20265;-64
2022/11/15 11:03:59;;;;;;;5.85;2.42;;;;;;;;;;5051422;28;20228;-64
2022/11/15 11:06:24;;;;;;;5.78;2.83;;;;;;;;;;5035778;28;20207;-64
2022/11/15 11:08:54;;;;;;;5.00;2.50;;;;;;;;;;5034873;28;20298;-65
2022/11/15 11:11:19;;;;;;;4.18;2.30;;;;;;;;;;5035141;28;20216;-65
2022/11/15 11:13:44;;;;;;;5.63;2.55;;;;;;;;;;5035171;28;20214;-64
2022/11/15 11:16:16;;;;;;;3.38;1.80;;;;;;;;;;5036492;28;20583;-65
2022/11/15 11:18:44;;;;;;;4.88;1.90;;;;;;;;;;5055702;28;20226;-64
2022/11/15 11:21:11;;;;;;;6.32;2.00;;;;;;;;;;5054356;28;20213;-64
2022/11/15 11:23:46;;;;;;;4.90;2.22;;;;;;;;;;5037305;28;20454;-63
2022/11/15 11:26:27;;;;;;;4.65;1.80;;;;;;;;;;5037030;28;20245;-63
2022/11/15 11:28:59;;;;;;;3.95;1.88;;;;;;;;;;5037038;28;20261;-65
2022/11/15 11:31:38;;;;;;;4.25;1.63;;;;;;;;;;5037181;28;20419;-65
2022/11/15 11:34:13;;;;;;;4.88;1.60;;;;;;;;;;5037216;28;20263;-65
2022/11/15 11:36:45;;;;;;;6.10;1.77;;;;;;;;;;5036994;28;20214;-65
2022/11/15 11:39:17;;;;;;;5.03;1.58;;;;;;;;;;5032918;28;20215;-65
2022/11/15 11:41:49;;;;;;;5.10;1.70;;;;;;;;;;5017217;28;20281;-65
2022/11/15 11:44:18;;;;;;;3.42;1.40;;;;;;;;;;5034762;28;20335;-65
2022/11/15 11:46:56;;;;;;;3.05;1.30;;;;;;;;;;5035226;28;20223;-65
2022/11/15 11:49:22;;;;;;;3.90;1.50;;;;;;;;;;5034128;28;20226;-65
2022/11/15 11:51:55;;;;;;;4.97;1.75;;;;;;;;;;5035154;28;20226;-65
2022/11/15 11:54:25;;;;;;;3.55;1.30;;;;;;;;;;5033293;28;20246;-65
2022/11/15 11:56:51;;;;;;;3.38;1.10;;;;;;;;;;5038627;28;20228;-65
2022/11/15 11:59:19;;;;;;;3.75;1.45;;;;;;;;;;5034547;28;20215;-65
2022/11/15 12:01:44;;;;;;;6.18;1.13;;;;;;;;;;5052601;28;20288;-65
2022/11/15 12:04:12;;;;;;;3.15;1.00;;;;;;;;;;5036040;28;20303;-66
2022/11/15 12:06:56;;;;;;;4.57;1.27;;;;;;;;;;5024774;28;20302;-66
2022/11/15 12:09:23;;;;;;;4.80;1.15;;;;;;;;;;5014096;28;20715;-68
2022/11/15 12:11:55;;;;;;;4.85;1.15;;;;;;;;;;5013956;28;20236;-68
2022/11/15 12:14:24;;;;;;;3.22;0.88;;;;;;;;;;5014585;28;20660;-70
2022/11/15 12:16:49;;;;;;;5.53;1.10;;;;;;;;;;4996973;28;20241;-68
2022/11/15 12:19:15;;;;;;;4.15;0.90;;;;;;;;;;5013753;28;20212;-68
2022/11/15 12:21:51;;;;;;;3.78;1.00;;;;;;;;;;5014541;28;20224;-68
2022/11/15 12:24:18;;;;;;;3.22;1.00;;;;;;;;;;4995890;28;20318;-68
2022/11/15 12:26:48;;;;;;;3.22;1.00;;;;;;;;;;5014675;28;20216;-67
2022/11/15 12:29:19;;;;;;;3.45;0.88;;;;;;;;;;4996609;28;20223;-66
2022/11/15 12:31:45;;;;;;;4.95;1.10;;;;;;;;;;5013852;28;20216;-67
2022/11/15 12:34:29;;;;;;;3.22;0.88;;;;;;;;;;4996691;28;20240;-67
2022/11/15 12:36:54;;;;;;;3.92;0.90;;;;;;;;;;5014569;28;20242;-65
2022/11/15 12:39:20;;;;;;;5.63;1.13;;;;;;;;;;4995441;28;20204;-67
2022/11/15 12:41:55;;;;;;;2.97;0.80;;;;;;;;;;5014270;28;20212;-66
2022/11/15 12:44:30;;;;;;;4.20;1.20;;;;;;;;;;5013867;28;20219;-68
2022/11/15 12:46:55;;;;;;;3.95;0.95;;;;;;;;;;5017078;28;20224;-66
2022/11/15 12:49:27;;;;;;;3.88;0.82;;;;;;;;;;5013879;28;20234;-66
2022/11/15 12:51:58;;;;;;;4.25;0.98;;;;;;;;;;5014289;28;20208;-67
2022/11/15 12:54:23;;;;;;;3.72;0.90;;;;;;;;;;5012716;28;20264;-66
2022/11/15 12:57:01;;;;;;;4.15;0.90;;;;;;;;;;5013919;28;20642;-66
2022/11/15 12:59:46;;;;;;;4.80;0.80;;;;;;;;;;5012848;28;20271;-67
2022/11/15 13:02:28;;;;;;;1.55;0.73;;;;;;;;;;5020119;28;20289;-68
2022/11/15 13:04:54;;;;;;;3.28;0.80;;;;;;;;;;5016225;28;20212;-67
2022/11/15 13:07:34;;;;;;;5.45;0.70;;;;;;;;;;5002437;28;20297;-68
2022/11/15 13:10:00;;;;;;;3.97;0.70;;;;;;;;;;5007488;28;20299;-68
2022/11/15 13:12:25;;;;;;;3.20;0.70;;;;;;;;;;5011668;28;20707;-67
2022/11/15 13:14:52;;;;;;;4.20;0.80;;;;;;;;;;5010739;28;20220;-67
2022/11/15 13:17:19;;;;;;;4.78;0.70;;;;;;;;;;5018551;28;20225;-67
2022/11/15 13:19:46;;;;;;;4.32;0.80;;;;;;;;;;5013970;28;20244;-67
2022/11/15 13:24:55;;;;;;;4.05;0.90;;;;;;;;;;5013609;28;20223;-67
2022/11/15 13:27:21;;;;;;;4.57;0.93;;;;;;;;;;5011271;28;20212;-67
2022/11/15 13:29:46;;;;;;;4.07;0.70;;;;;;;;;;5012444;28;20209;-67
2022/11/15 13:32:13;;;;;;;4.57;0.98;;;;;;;;;;5030694;28;20222;-66
2022/11/15 13:34:38;;;;;;;1.95;0.80;;;;;;;;;;5032463;28;20219;-67
2022/11/15 13:37:03;;;;;;;4.40;1.15;;;;;;;;;;5031618;28;20224;-67
2022/11/15 13:39:30;;;;;;;2.50;0.88;;;;;;;;;;5025249;28;20600;-67
2022/11/15 13:41:55;;;;;;;4.95;1.00;;;;;;;;;;5012703;28;20221;-67
2022/11/15 13:44:28;;;;;;;2.17;0.90;;;;;;;;;;5012704;28;20596;-67
2022/11/15 13:47:03;;;;;;;2.55;0.93;;;;;;;;;;4995718;28;20212;-67
2022/11/15 13:49:29;;;;;;;4.55;1.10;;;;;;;;;;4992698;28;20212;-67
2022/11/15 13:51:54;;;;;;;3.63;0.90;;;;;;;;;;4993435;28;20209;-67
2022/11/15 13:54:23;;;;;;;3.05;0.90;;;;;;;;;;4992924;28;20308;-67
2022/11/15 13:56:52;;;;;;;3.45;0.90;;;;;;;;;;5006114;28;20225;-67
2022/11/15 13:59:23;;;;;;;3.63;1.10;;;;;;;;;;5012342;28;20270;-67
2022/11/15 14:01:48;;;;;;;4.00;1.20;;;;;;;;;;5012855;28;20232;-67
2022/11/15 14:04:15;;;;;;;3.60;1.13;;;;;;;;;;4994381;28;20628;-67
2022/11/15 14:06:45;;;;;;;3.88;1.35;;;;;;;;;;4995626;28;20263;-67
2022/11/15 14:09:10;;;;;;;5.13;1.20;;;;;;;;;;4994735;28;20303;-67
2022/11/15 14:11:36;;;;;;;5.10;1.27;;;;;;;;;;5012312;28;20292;-66
2022/11/15 14:14:07;;;;;;;4.25;1.25;;;;;;;;;;5013653;28;20675;-65
2022/11/15 14:16:33;;;;;;;5.18;1.30;;;;;;;;;;5011910;28;20212;-67
2022/11/15 14:18:58;;;;;;;3.65;1.08;;;;;;;;;;5012843;28;20235;-67
2022/11/15 14:21:24;;;;;;;3.60;1.35;;;;;;;;;;5012002;28;20619;-67
2022/11/15 14:23:50;;;;;;;4.47;1.00;;;;;;;;;;5011656;28;21043;-67
2022/11/15 14:26:32;;;;;;;4.13;1.30;;;;;;;;;;5012230;28;20690;-67
2022/11/15 14:28:57;;;;;;;3.35;1.00;;;;;;;;;;5012378;28;20741;-65
2022/11/15 14:31:22;;;;;;;4.90;1.20;;;;;;;;;;4992141;28;20216;-64
2022/11/15 14:33:48;;;;;;;2.40;1.00;;;;;;;;;;5011963;28;20223;-65
2022/11/15 14:36:19;;;;;;;4.50;1.10;;;;;;;;;;5012266;28;20204;-64
2022/11/15 14:38:45;;;;;;;2.85;1.00;;;;;;;;;;5011198;28;20232;-64
2022/11/15 14:41:17;;;;;;;3.72;1.00;;;;;;;;;;5007467;28;20204;-65